Time;durP1;ratioP1;P1;durP2;ratioP2;P2;SDS_P1;SDS_P2;PMS_P1;PMS_P2;Temp;Humidity;BMP_temperature;BMP_pressure;BME280_temperature;BME280_humidity;BME280_pressure;Samples;Min_cycle;Max_cycle;Signal;HPM_P1;HPM_P2
2021/01/02 00:03:48;;;;;;;16.30;7.73;;;;;;;;;;10212555;28;20034;-63
2021/01/02 00:08:50;;;;;;;12.57;6.23;;;;;;;;;;10207387;28;20677;-63
2021/01/02 00:13:59;;;;;;;13.55;6.90;;;;;;;;;;10212735;28;20038;-65
2021/01/02 00:19:07;;;;;;;23.50;9.43;;;;;;;;;;10214387;28;20018;-63
2021/01/02 00:24:04;;;;;;;17.87;9.87;;;;;;;;;;10210302;28;20397;-62
2021/01/02 00:29:03;;;;;;;13.57;7.53;;;;;;;;;;10204110;28;20030;-65
2021/01/02 00:34:19;;;;;;;15.50;6.32;;;;;;;;;;10196487;28;20038;-62
2021/01/02 00:39:26;;;;;;;17.58;9.25;;;;;;;;;;10206062;28;20496;-63
2021/01/02 00:44:24;;;;;;;11.00;6.65;;;;;;;;;;10200947;28;20035;-63
2021/01/02 00:49:22;;;;;;;6.60;2.80;;;;;;;;;;10196677;28;20365;-64
2021/01/02 00:54:38;;;;;;;24.07;10.10;;;;;;;;;;10185243;28;20042;-65
2021/01/02 00:59:35;;;;;;;20.30;7.30;;;;;;;;;;10196191;28;20030;-63
2021/01/02 01:04:36;;;;;;;13.05;6.32;;;;;;;;;;10192360;28;20031;-63
2021/01/02 01:09:36;;;;;;;20.50;9.10;;;;;;;;;;10194331;28;20039;-63
2021/01/02 01:14:35;;;;;;;16.02;7.97;;;;;;;;;;10199334;28;20430;-63
2021/01/02 01:19:33;;;;;;;13.52;6.57;;;;;;;;;;10196582;28;20397;-63
2021/01/02 01:24:46;;;;;;;19.10;8.73;;;;;;;;;;10193949;28;20117;-63
2021/01/02 01:29:50;;;;;;;16.90;7.70;;;;;;;;;;10202305;28;20039;-63
2021/01/02 01:34:48;;;;;;;9.85;5.05;;;;;;;;;;10213489;28;20050;-63
2021/01/02 01:39:50;;;;;;;18.88;8.77;;;;;;;;;;10207343;28;20084;-63
2021/01/02 01:44:54;;;;;;;19.80;8.98;;;;;;;;;;10202492;28;20049;-61
2021/01/02 01:49:55;;;;;;;10.02;6.40;;;;;;;;;;10200452;28;20393;-63
2021/01/02 01:55:06;;;;;;;12.10;5.85;;;;;;;;;;10173693;28;20513;-62
2021/01/02 02:00:08;;;;;;;15.27;4.97;;;;;;;;;;10165012;28;20073;-62
2021/01/02 02:05:08;;;;;;;20.20;9.50;;;;;;;;;;10188811;28;20049;-62
2021/01/02 02:10:05;;;;;;;12.30;6.47;;;;;;;;;;10194258;28;20131;-63
2021/01/02 02:15:07;;;;;;;17.77;7.60;;;;;;;;;;10210869;28;20133;-61
2021/01/02 02:20:08;;;;;;;12.50;8.05;;;;;;;;;;10211934;28;20512;-61
2021/01/02 02:25:15;;;;;;;12.55;6.05;;;;;;;;;;10197099;28;20062;-66
2021/01/02 02:30:14;;;;;;;14.02;8.65;;;;;;;;;;10215311;28;20489;-65
2021/01/02 02:35:13;;;;;;;13.60;5.18;;;;;;;;;;10217829;28;20034;-65
2021/01/02 02:40:11;;;;;;;17.83;7.13;;;;;;;;;;10199703;28;20468;-65
2021/01/02 02:45:11;;;;;;;15.48;8.27;;;;;;;;;;10208567;28;20517;-65
2021/01/02 02:50:14;;;;;;;14.77;6.60;;;;;;;;;;10207973;28;20034;-65
2021/01/02 02:55:11;;;;;;;14.68;6.78;;;;;;;;;;10216830;28;20043;-66
2021/01/02 03:00:09;;;;;;;10.50;6.60;;;;;;;;;;10203053;28;20039;-66
2021/01/02 03:05:09;;;;;;;14.60;6.60;;;;;;;;;;10222671;28;20046;-64
2021/01/02 03:10:08;;;;;;;14.68;7.72;;;;;;;;;;10179458;28;20038;-63
2021/01/02 03:15:05;;;;;;;;;;;;;;;;;;10192339;28;20567;-63
2021/01/02 03:20:03;;;;;;;24.92;10.93;;;;;;;;;;10204353;28;19914;-64
2021/01/02 03:25:00;;;;;;;25.40;10.33;;;;;;;;;;10202934;28;20039;-65
2021/01/02 03:29:58;;;;;;;17.40;7.40;;;;;;;;;;10212228;28;20390;-65
2021/01/02 03:34:55;;;;;;;18.30;9.33;;;;;;;;;;10208590;28;20047;-64
2021/01/02 03:39:52;;;;;;;9.87;6.70;;;;;;;;;;10210106;28;20035;-63
2021/01/02 03:44:50;;;;;;;15.77;6.30;;;;;;;;;;10208375;28;20026;-65
2021/01/02 03:49:47;;;;;;;18.13;8.90;;;;;;;;;;10208869;28;20034;-64
2021/01/02 03:54:45;;;;;;;20.83;10.17;;;;;;;;;;10204296;28;20476;-64
2021/01/02 03:59:42;;;;;;;20.83;9.47;;;;;;;;;;10209691;28;20030;-63
2021/01/02 04:04:39;;;;;;;24.03;10.97;;;;;;;;;;10214982;28;20062;-66
2021/01/02 04:09:37;;;;;;;24.13;10.70;;;;;;;;;;10208571;28;20034;-65
2021/01/02 04:14:34;;;;;;;18.00;8.53;;;;;;;;;;10194698;28;20031;-65
2021/01/02 04:19:32;;;;;;;7.80;3.33;;;;;;;;;;10211700;28;20034;-65
2021/01/02 04:24:30;;;;;;;19.90;8.90;;;;;;;;;;10190954;28;20034;-65
2021/01/02 04:29:27;;;;;;;14.37;6.33;;;;;;;;;;10209103;28;20026;-65
2021/01/02 04:34:25;;;;;;;16.43;8.53;;;;;;;;;;10219016;28;20031;-65
2021/01/02 04:39:22;;;;;;;26.73;11.37;;;;;;;;;;10205645;28;20038;-66
2021/01/02 04:44:19;;;;;;;26.70;11.20;;;;;;;;;;10200544;28;20031;-66
2021/01/02 04:49:17;;;;;;;23.80;10.53;;;;;;;;;;10190976;28;20038;-65
2021/01/02 04:54:15;;;;;;;17.87;10.17;;;;;;;;;;10206118;28;20505;-65
2021/01/02 04:59:12;;;;;;;26.08;11.75;;;;;;;;;;10199567;28;20057;-64
2021/01/02 05:04:10;;;;;;;20.33;8.00;;;;;;;;;;10208035;28;20089;-63
2021/01/02 05:09:07;;;;;;;21.50;10.73;;;;;;;;;;10211922;28;20540;-67
2021/01/02 05:14:05;;;;;;;22.30;11.37;;;;;;;;;;10206451;28;20417;-65
2021/01/02 05:19:04;;;;;;;11.93;7.45;;;;;;;;;;10193798;28;20031;-64
2021/01/02 05:24:05;;;;;;;24.38;11.70;;;;;;;;;;10193688;28;20046;-65
2021/01/02 05:29:17;;;;;;;21.95;9.75;;;;;;;;;;10212476;28;20503;-64
2021/01/02 05:34:16;;;;;;;22.55;11.13;;;;;;;;;;10204750;28;20576;-64
2021/01/02 05:39:17;;;;;;;23.13;10.75;;;;;;;;;;10208049;28;20037;-65
2021/01/02 05:44:14;;;;;;;13.48;6.90;;;;;;;;;;10204025;28;20069;-64
2021/01/02 05:49:30;;;;;;;14.43;5.37;;;;;;;;;;10209310;28;20070;-64
2021/01/02 05:54:29;;;;;;;16.73;7.43;;;;;;;;;;10214827;28;20416;-64
2021/01/02 05:59:30;;;;;;;21.08;10.15;;;;;;;;;;10200072;28;20030;-64
2021/01/02 06:04:27;;;;;;;18.52;9.00;;;;;;;;;;10206369;28;20047;-63
2021/01/02 06:09:25;;;;;;;18.63;8.90;;;;;;;;;;10211595;28;20049;-64
2021/01/02 06:14:23;;;;;;;20.07;8.93;;;;;;;;;;10207182;28;20412;-65
2021/01/02 06:19:22;;;;;;;27.25;12.73;;;;;;;;;;10183900;28;20066;-64
2021/01/02 06:24:20;;;;;;;25.83;11.73;;;;;;;;;;10194090;28;20031;-61
2021/01/02 06:29:17;;;;;;;23.20;12.03;;;;;;;;;;10193060;28;20035;-60
2021/01/02 06:34:15;;;;;;;27.80;13.83;;;;;;;;;;10199847;28;20046;-61
2021/01/02 06:39:16;;;;;;;29.05;13.55;;;;;;;;;;10186572;28;20041;-60
2021/01/02 06:44:43;;;;;;;29.88;13.25;;;;;;;;;;10182039;28;20528;-60
2021/01/02 06:49:40;;;;;;;30.00;13.10;;;;;;;;;;10178598;28;20070;-62
2021/01/02 06:54:39;;;;;;;26.83;13.40;;;;;;;;;;10190059;28;20039;-61
2021/01/02 06:59:36;;;;;;;30.88;12.75;;;;;;;;;;10194617;28;20030;-61
2021/01/02 07:04:37;;;;;;;29.67;12.17;;;;;;;;;;10186123;28;20088;-64
2021/01/02 07:09:35;;;;;;;31.90;12.70;;;;;;;;;;10199754;28;20054;-64
2021/01/02 07:14:32;;;;;;;22.10;11.30;;;;;;;;;;10199908;28;20039;-64
2021/01/02 07:19:34;;;;;;;22.57;11.77;;;;;;;;;;10204211;28;20135;-63
2021/01/02 07:24:50;;;;;;;24.42;12.35;;;;;;;;;;10190173;28;20516;-63
2021/01/02 07:29:48;;;;;;;23.05;11.13;;;;;;;;;;10190061;28;20046;-63
2021/01/02 07:34:46;;;;;;;;;;;;;;;;;;10199403;28;20540;-63
2021/01/02 07:40:00;;;;;;;25.77;11.77;;;;;;;;;;10158576;28;20348;-62
2021/01/02 07:45:13;;;;;;;24.80;11.75;;;;;;;;;;10204243;28;20046;-64
2021/01/02 07:50:12;;;;;;;25.33;13.18;;;;;;;;;;10199409;28;20053;-64
2021/01/02 07:55:10;;;;;;;23.73;12.15;;;;;;;;;;10193099;28;20053;-62
2021/01/02 08:00:08;;;;;;;26.67;13.47;;;;;;;;;;10195553;28;20029;-63
2021/01/02 08:05:13;;;;;;;27.38;10.98;;;;;;;;;;10180177;28;20045;-63
2021/01/02 08:10:11;;;;;;;23.73;10.82;;;;;;;;;;10202823;28;20033;-66
2021/01/02 08:15:10;;;;;;;25.75;11.63;;;;;;;;;;10191594;28;21293;-64
2021/01/02 08:20:07;;;;;;;23.58;10.85;;;;;;;;;;10201253;28;20046;-63
2021/01/02 08:25:08;;;;;;;20.23;10.25;;;;;;;;;;10181015;28;20038;-65
2021/01/02 08:30:08;;;;;;;28.13;10.93;;;;;;;;;;10202545;28;20623;-62
2021/01/02 08:35:16;;;;;;;24.13;10.32;;;;;;;;;;10198139;28;20070;-62
2021/01/02 08:40:15;;;;;;;20.75;10.73;;;;;;;;;;10169775;28;20050;-62
2021/01/02 08:45:14;;;;;;;20.90;10.60;;;;;;;;;;10207233;28;20042;-63
2021/01/02 08:50:14;;;;;;;25.08;10.50;;;;;;;;;;10183872;28;20042;-61
2021/01/02 08:55:13;;;;;;;24.48;10.90;;;;;;;;;;10189952;28;20045;-64
2021/01/02 09:00:11;;;;;;;27.55;11.70;;;;;;;;;;10179314;28;20138;-63
2021/01/02 09:05:20;;;;;;;31.20;11.83;;;;;;;;;;10166514;28;20104;-64
2021/01/02 09:10:37;;;;;;;25.67;12.70;;;;;;;;;;10162930;28;20031;-63
2021/01/02 09:16:01;;;;;;;31.35;13.27;;;;;;;;;;10171726;28;20046;-64
2021/01/02 09:20:59;;;;;;;24.27;11.77;;;;;;;;;;10192080;28;20441;-65
2021/01/02 09:25:57;;;;;;;27.27;12.20;;;;;;;;;;10177704;28;20055;-63
2021/01/02 09:30:54;;;;;;;19.47;9.83;;;;;;;;;;10192317;28;20729;-62
2021/01/02 09:35:51;;;;;;;19.40;9.87;;;;;;;;;;10201074;28;20035;-64
2021/01/02 09:40:49;;;;;;;24.20;11.23;;;;;;;;;;10194483;28;20031;-65
2021/01/02 09:45:46;;;;;;;19.33;9.67;;;;;;;;;;10197661;28;20125;-65
2021/01/02 09:50:45;;;;;;;22.03;9.13;;;;;;;;;;10208801;28;20057;-65
2021/01/02 09:55:43;;;;;;;24.10;10.07;;;;;;;;;;10199176;28;20133;-64
2021/01/02 10:00:40;;;;;;;22.57;11.10;;;;;;;;;;10175350;28;20130;-64
2021/01/02 10:05:38;;;;;;;22.70;9.87;;;;;;;;;;10191334;28;20054;-65
2021/01/02 10:10:35;;;;;;;17.27;9.03;;;;;;;;;;10184946;28;20026;-65
2021/01/02 10:15:32;;;;;;;24.70;11.50;;;;;;;;;;10211732;28;20030;-65
2021/01/02 10:20:30;;;;;;;23.70;9.20;;;;;;;;;;10183937;28;20031;-65
2021/01/02 10:25:27;;;;;;;18.80;9.40;;;;;;;;;;10196667;28;20038;-66
2021/01/02 10:30:25;;;;;;;16.80;7.10;;;;;;;;;;10201438;28;20053;-64
2021/01/02 10:35:22;;;;;;;21.50;8.63;;;;;;;;;;10170990;28;20039;-64
2021/01/02 10:40:20;;;;;;;15.03;8.57;;;;;;;;;;10194023;28;20034;-64
2021/01/02 10:45:18;;;;;;;17.37;7.30;;;;;;;;;;10202061;28;20066;-65
2021/01/02 10:50:15;;;;;;;23.48;9.43;;;;;;;;;;10209094;28;20030;-65
2021/01/02 10:55:13;;;;;;;14.83;7.43;;;;;;;;;;10208496;28;20031;-64
2021/01/02 11:00:11;;;;;;;20.67;9.07;;;;;;;;;;10179592;28;20035;-64
2021/01/02 11:05:08;;;;;;;20.53;8.63;;;;;;;;;;10195091;28;20041;-65
2021/01/02 11:10:06;;;;;;;22.57;9.77;;;;;;;;;;10182716;28;20285;-64
2021/01/02 11:15:07;;;;;;;27.27;9.03;;;;;;;;;;10195103;28;20034;-65
2021/01/02 11:20:05;;;;;;;24.10;10.20;;;;;;;;;;10196530;28;20756;-64
2021/01/02 11:25:03;;;;;;;21.83;7.83;;;;;;;;;;10199876;28;20038;-64
2021/01/02 11:30:00;;;;;;;17.27;8.35;;;;;;;;;;10191406;28;20049;-62
2021/01/02 11:34:58;;;;;;;19.80;8.13;;;;;;;;;;10187028;28;20903;-64
2021/01/02 11:39:55;;;;;;;16.37;6.90;;;;;;;;;;10185387;28;20177;-63
2021/01/02 11:44:52;;;;;;;12.50;5.87;;;;;;;;;;10178799;28;20038;-64
2021/01/02 11:49:50;;;;;;;13.73;6.47;;;;;;;;;;10173086;28;20034;-63
2021/01/02 11:54:47;;;;;;;10.60;5.30;;;;;;;;;;10175241;28;20035;-63
2021/01/02 11:59:45;;;;;;;16.07;7.40;;;;;;;;;;10179381;28;20070;-63
2021/01/02 12:04:43;;;;;;;20.80;9.73;;;;;;;;;;10192794;28;20041;-63
2021/01/02 12:09:43;;;;;;;12.70;5.70;;;;;;;;;;10186314;28;20532;-63
2021/01/02 12:14:40;;;;;;;13.48;4.88;;;;;;;;;;10180921;28;20042;-63
2021/01/02 12:19:38;;;;;;;16.17;5.90;;;;;;;;;;10200812;28;20026;-64
2021/01/02 12:24:35;;;;;;;15.70;5.13;;;;;;;;;;10179919;28;20509;-63
2021/01/02 12:29:34;;;;;;;18.88;7.57;;;;;;;;;;10194397;28;20448;-64
2021/01/02 12:34:33;;;;;;;18.95;5.15;;;;;;;;;;10177797;28;20441;-63
2021/01/02 12:39:30;;;;;;;;;;;;;;;;;;10185600;28;20057;-64
2021/01/02 12:44:28;;;;;;;9.50;5.67;;;;;;;;;;10179866;28;19924;-64
2021/01/02 12:49:27;;;;;;;19.43;8.07;;;;;;;;;;10211294;28;20356;-65
2021/01/02 12:54:24;;;;;;;16.27;4.88;;;;;;;;;;10185794;28;20512;-63
2021/01/02 12:59:22;;;;;;;9.83;4.60;;;;;;;;;;10192157;28;20061;-65
2021/01/02 13:04:19;;;;;;;16.93;7.30;;;;;;;;;;10199639;28;20037;-64
2021/01/02 13:09:17;;;;;;;13.80;5.67;;;;;;;;;;10180670;28;20513;-64
2021/01/02 13:14:15;;;;;;;19.87;7.87;;;;;;;;;;10179219;28;20050;-66
2021/01/02 13:19:12;;;;;;;14.18;6.38;;;;;;;;;;10197707;28;20516;-64
2021/01/02 13:24:10;;;;;;;12.07;6.83;;;;;;;;;;10197192;28;20061;-64
2021/01/02 13:29:07;;;;;;;24.87;11.67;;;;;;;;;;10186330;28;20062;-65
2021/01/02 13:34:05;;;;;;;14.10;6.80;;;;;;;;;;10197682;28;20046;-64
2021/01/02 13:39:03;;;;;;;19.27;7.47;;;;;;;;;;10194775;28;20089;-65
2021/01/02 13:44:01;;;;;;;20.65;9.48;;;;;;;;;;10199561;28;20421;-64
2021/01/02 13:48:58;;;;;;;21.47;11.53;;;;;;;;;;10194415;28;20034;-64
2021/01/02 13:53:55;;;;;;;23.67;9.70;;;;;;;;;;10197822;28;20489;-64
2021/01/02 13:58:53;;;;;;;10.93;6.07;;;;;;;;;;10197865;28;20046;-64
2021/01/02 14:03:50;;;;;;;25.53;10.60;;;;;;;;;;10158140;28;20121;-64
2021/01/02 14:08:48;;;;;;;18.00;6.93;;;;;;;;;;10198438;28;20030;-65
2021/01/02 14:13:46;;;;;;;10.20;4.93;;;;;;;;;;10193134;28;20047;-64
2021/01/02 14:18:44;;;;;;;13.65;5.70;;;;;;;;;;10193612;28;20409;-64
2021/01/02 14:23:42;;;;;;;16.00;5.97;;;;;;;;;;10190173;28;20077;-64
2021/01/02 14:28:39;;;;;;;14.83;6.57;;;;;;;;;;10206309;28;20114;-63
2021/01/02 14:33:37;;;;;;;13.50;6.47;;;;;;;;;;10212603;28;20034;-65
2021/01/02 14:38:35;;;;;;;12.93;6.60;;;;;;;;;;10212971;28;20130;-63
2021/01/02 14:43:32;;;;;;;14.32;6.07;;;;;;;;;;10203236;28;20034;-65
2021/01/02 14:48:30;;;;;;;26.33;11.83;;;;;;;;;;10209977;28;20046;-64
2021/01/02 14:53:28;;;;;;;27.08;11.43;;;;;;;;;;10192016;28;20042;-63
2021/01/02 14:58:25;;;;;;;9.60;5.27;;;;;;;;;;10209955;28;20042;-64
2021/01/02 15:03:23;;;;;;;14.53;7.20;;;;;;;;;;10200342;28;21487;-65
2021/01/02 15:08:20;;;;;;;11.95;5.00;;;;;;;;;;10201082;28;20019;-65
2021/01/02 15:13:17;;;;;;;28.00;10.23;;;;;;;;;;10200619;28;20019;-64
2021/01/02 15:18:15;;;;;;;27.67;11.10;;;;;;;;;;10195831;28;20031;-66
2021/01/02 15:23:12;;;;;;;23.07;11.00;;;;;;;;;;10204971;28;20022;-63
2021/01/02 15:28:10;;;;;;;25.30;10.33;;;;;;;;;;10178763;28;20120;-64
2021/01/02 15:33:08;;;;;;;24.67;10.27;;;;;;;;;;10171203;28;20038;-64
2021/01/02 15:38:08;;;;;;;26.90;13.17;;;;;;;;;;10193963;28;20042;-64
2021/01/02 15:43:05;;;;;;;29.95;10.88;;;;;;;;;;10199223;28;20044;-63
2021/01/02 15:48:03;;;;;;;24.47;10.40;;;;;;;;;;10189959;28;20046;-65
2021/01/02 15:53:00;;;;;;;26.60;10.73;;;;;;;;;;10202549;28;20916;-65
2021/01/02 15:57:58;;;;;;;27.37;10.53;;;;;;;;;;10186267;28;20298;-65
2021/01/02 16:02:55;;;;;;;13.13;6.60;;;;;;;;;;10188081;28;20072;-65
2021/01/02 16:07:52;;;;;;;20.60;7.10;;;;;;;;;;10192355;28;20497;-65
2021/01/02 16:12:50;;;;;;;22.27;9.60;;;;;;;;;;10194016;28;20130;-64
2021/01/02 16:17:47;;;;;;;36.03;15.37;;;;;;;;;;10200263;28;20049;-64
2021/01/02 16:22:45;;;;;;;23.80;11.20;;;;;;;;;;10186826;28;20046;-64
2021/01/02 16:27:42;;;;;;;28.90;11.60;;;;;;;;;;10199272;28;20525;-64
2021/01/02 16:32:39;;;;;;;14.90;6.87;;;;;;;;;;10193075;28;20105;-64
2021/01/02 16:37:37;;;;;;;14.87;5.37;;;;;;;;;;10178028;28;20505;-65
2021/01/02 16:42:34;;;;;;;15.77;6.17;;;;;;;;;;10188591;28;20035;-64
2021/01/02 16:47:32;;;;;;;13.63;6.23;;;;;;;;;;10192155;28;20030;-65
2021/01/02 16:52:29;;;;;;;10.30;4.77;;;;;;;;;;10182074;28;20100;-64
2021/01/02 16:57:27;;;;;;;13.40;6.00;;;;;;;;;;10196055;28;20042;-64
2021/01/02 17:02:24;;;;;;;17.83;7.53;;;;;;;;;;10200706;28;20489;-64
2021/01/02 17:07:24;;;;;;;16.50;8.20;;;;;;;;;;10183850;28;20062;-64
2021/01/02 17:12:21;;;;;;;31.33;12.25;;;;;;;;;;10197840;28;20468;-64
2021/01/02 17:17:19;;;;;;;29.53;13.07;;;;;;;;;;10183321;28;20061;-64
2021/01/02 17:22:16;;;;;;;8.70;5.43;;;;;;;;;;10200052;28;20027;-64
2021/01/02 17:27:14;;;;;;;13.70;5.93;;;;;;;;;;10188633;28;20137;-65
2021/01/02 17:32:13;;;;;;;15.00;7.77;;;;;;;;;;10190911;28;20034;-64
2021/01/02 17:37:15;;;;;;;12.43;7.00;;;;;;;;;;10181332;28;20067;-65
2021/01/02 17:42:18;;;;;;;22.13;8.27;;;;;;;;;;10200570;28;20065;-65
2021/01/02 17:47:17;;;;;;;17.88;7.15;;;;;;;;;;10208657;28;20050;-64
2021/01/02 17:52:15;;;;;;;22.98;7.53;;;;;;;;;;10197119;28;20066;-64
2021/01/02 17:57:13;;;;;;;21.55;8.68;;;;;;;;;;10193233;28;20487;-64
2021/01/02 18:02:10;;;;;;;19.00;8.53;;;;;;;;;;10199605;28;20034;-64
2021/01/02 18:07:08;;;;;;;19.57;8.47;;;;;;;;;;10197548;28;20125;-64
2021/01/02 18:12:05;;;;;;;18.30;8.57;;;;;;;;;;10206080;28;20100;-64
2021/01/02 18:17:04;;;;;;;23.23;10.23;;;;;;;;;;10189322;28;20035;-64
2021/01/02 18:22:03;;;;;;;29.90;12.45;;;;;;;;;;10207702;28;20033;-63
2021/01/02 18:27:02;;;;;;;32.00;12.20;;;;;;;;;;10206461;28;20473;-62
2021/01/02 18:32:00;;;;;;;30.10;12.82;;;;;;;;;;10187125;28;20034;-64
2021/01/02 18:36:58;;;;;;;36.13;12.97;;;;;;;;;;10173628;28;20405;-64
2021/01/02 18:41:55;;;;;;;;;;;;;;;;;;10152461;28;20167;-64
2021/01/02 18:47:07;;;;;;;37.60;15.25;;;;;;;;;;10182537;28;20016;-64
2021/01/02 18:52:06;;;;;;;36.25;14.02;;;;;;;;;;10189152;28;20034;-64
2021/01/02 18:57:04;;;;;;;32.88;13.45;;;;;;;;;;10193158;28;20042;-65
2021/01/02 19:02:03;;;;;;;35.57;13.87;;;;;;;;;;10193218;28;20027;-64
2021/01/02 19:07:05;;;;;;;35.50;15.35;;;;;;;;;;10192769;28;20035;-65
2021/01/02 19:12:04;;;;;;;27.73;13.52;;;;;;;;;;10180541;28;20045;-64
2021/01/02 19:17:03;;;;;;;36.50;15.52;;;;;;;;;;10190553;28;20089;-65
2021/01/02 19:22:02;;;;;;;26.77;11.20;;;;;;;;;;10184675;28;20042;-64
2021/01/02 19:26:59;;;;;;;34.42;11.15;;;;;;;;;;10190664;28;20043;-65
2021/01/02 19:31:58;;;;;;;23.33;11.00;;;;;;;;;;10194666;28;20046;-64
2021/01/02 19:36:59;;;;;;;17.83;8.32;;;;;;;;;;10196877;28;20125;-64
2021/01/02 19:42:04;;;;;;;16.13;8.15;;;;;;;;;;10187689;28;20035;-64
2021/01/02 19:47:03;;;;;;;22.42;9.82;;;;;;;;;;10168212;28;20097;-64
2021/01/02 19:52:02;;;;;;;21.50;8.35;;;;;;;;;;10202915;28;20134;-64
2021/01/02 19:57:04;;;;;;;29.67;11.48;;;;;;;;;;10187240;28;20057;-64
2021/01/02 20:02:02;;;;;;;21.92;10.50;;;;;;;;;;10181457;28;20027;-64
2021/01/02 20:07:00;;;;;;;32.07;11.83;;;;;;;;;;10197196;28;20050;-64
2021/01/02 20:11:58;;;;;;;24.58;10.98;;;;;;;;;;10169146;28;20136;-64
2021/01/02 20:16:56;;;;;;;32.60;11.67;;;;;;;;;;10173709;28;20157;-64
2021/01/02 20:21:57;;;;;;;27.55;12.07;;;;;;;;;;10170326;28;20282;-64
2021/01/02 20:26:59;;;;;;;30.83;12.55;;;;;;;;;;10207986;28;20050;-65
2021/01/02 20:31:59;;;;;;;28.80;12.27;;;;;;;;;;10205501;28;20045;-64
2021/01/02 20:36:59;;;;;;;29.65;13.02;;;;;;;;;;10182814;28;20053;-64
2021/01/02 20:41:56;;;;;;;33.55;12.10;;;;;;;;;;10182072;28;20038;-64
2021/01/02 20:46:57;;;;;;;37.17;12.37;;;;;;;;;;10207437;28;20034;-65
2021/01/02 20:51:56;;;;;;;27.85;12.95;;;;;;;;;;10202491;28;20045;-65
2021/01/02 20:56:54;;;;;;;37.17;15.27;;;;;;;;;;10197415;28;20076;-64
2021/01/02 21:01:53;;;;;;;36.23;13.83;;;;;;;;;;10210634;28;20026;-64
2021/01/02 21:06:53;;;;;;;30.90;12.55;;;;;;;;;;10180325;28;20130;-64
2021/01/02 21:11:51;;;;;;;29.02;13.18;;;;;;;;;;10200375;28;20129;-64
2021/01/02 21:16:49;;;;;;;31.92;11.82;;;;;;;;;;10211621;28;20133;-64
2021/01/02 21:21:47;;;;;;;28.67;12.97;;;;;;;;;;10201565;28;20041;-64
2021/01/02 21:26:45;;;;;;;25.08;10.98;;;;;;;;;;10194922;28;20085;-64
2021/01/02 21:31:45;;;;;;;39.15;12.80;;;;;;;;;;10182384;28;20517;-64
2021/01/02 21:36:43;;;;;;;39.22;13.50;;;;;;;;;;10193971;28;20584;-64
2021/01/02 21:41:40;;;;;;;29.40;12.83;;;;;;;;;;10194418;28;20140;-64
2021/01/02 21:46:37;;;;;;;29.47;11.87;;;;;;;;;;10174736;28;20039;-64
2021/01/02 21:51:36;;;;;;;29.43;13.20;;;;;;;;;;10189463;28;20034;-64
2021/01/02 21:56:34;;;;;;;38.33;14.02;;;;;;;;;;10202516;28;20037;-63
2021/01/02 22:01:40;;;;;;;19.38;9.27;;;;;;;;;;10189857;28;20075;-62
2021/01/02 22:06:39;;;;;;;28.17;11.63;;;;;;;;;;10194328;28;20046;-64
2021/01/02 22:11:36;;;;;;;44.03;15.82;;;;;;;;;;10198151;28;20041;-65
2021/01/02 22:16:34;;;;;;;31.10;11.53;;;;;;;;;;10193270;28;20722;-65
2021/01/02 22:21:38;;;;;;;24.53;10.60;;;;;;;;;;10182896;28;20039;-65
2021/01/02 22:26:35;;;;;;;26.33;11.30;;;;;;;;;;10199346;28;20045;-65
2021/01/02 22:31:34;;;;;;;24.03;9.40;;;;;;;;;;10181111;28;20045;-65
2021/01/02 22:36:32;;;;;;;30.20;9.88;;;;;;;;;;10193670;28;20455;-65
2021/01/02 22:41:30;;;;;;;32.70;12.10;;;;;;;;;;10207276;28;20109;-65
2021/01/02 22:46:28;;;;;;;23.67;10.57;;;;;;;;;;10204891;28;20050;-65
2021/01/02 22:51:27;;;;;;;22.25;8.13;;;;;;;;;;10201438;28;20049;-65
2021/01/02 22:56:25;;;;;;;20.75;7.53;;;;;;;;;;10213299;28;20104;-65
2021/01/02 23:01:24;;;;;;;22.88;9.00;;;;;;;;;;10209011;28;20034;-65
2021/01/02 23:06:25;;;;;;;24.48;9.98;;;;;;;;;;10186540;28;20030;-65
2021/01/02 23:11:26;;;;;;;25.60;9.65;;;;;;;;;;10213254;28;20068;-65
2021/01/02 23:16:28;;;;;;;22.00;8.30;;;;;;;;;;10190252;28;20034;-65
2021/01/02 23:21:26;;;;;;;22.58;9.27;;;;;;;;;;10203537;28;20085;-65
2021/01/02 23:26:24;;;;;;;23.07;9.43;;;;;;;;;;10200631;28;20093;-64
2021/01/02 23:31:21;;;;;;;22.50;9.15;;;;;;;;;;10185608;28;20512;-63
2021/01/02 23:36:22;;;;;;;22.83;8.37;;;;;;;;;;10183382;28;20045;-65
2021/01/02 23:41:19;;;;;;;16.35;7.00;;;;;;;;;;10187447;28;20349;-65
2021/01/02 23:46:17;;;;;;;11.50;5.17;;;;;;;;;;10163407;28;20038;-64
2021/01/02 23:51:22;;;;;;;24.58;10.18;;;;;;;;;;10182802;28;20509;-64
2021/01/02 23:56:19;;;;;;;28.17;11.18;;;;;;;;;;10200905;28;20068;-64
